Time;durP1;ratioP1;P1;durP2;ratioP2;P2;SDS_P1;SDS_P2;PMS_P1;PMS_P2;Temp;Humidity;BMP_temperature;BMP_pressure;BME280_temperature;BME280_humidity;BME280_pressure;Samples;Min_cycle;Max_cycle;Signal;HPM_P1;HPM_P2
2023/11/20 00:02:35;;;;;;;19.98;3.72;;;8.60;99.90;;;;;;5009992;28;20046;-80
2023/11/20 00:05:22;;;;;;;14.50;3.13;;;8.70;99.90;;;;;;5010393;28;20060;-80
2023/11/20 00:08:10;;;;;;;14.20;3.28;;;8.90;99.90;;;;;;5003638;28;20050;-81
2023/11/20 00:10:57;;;;;;;22.35;4.53;;;9.00;99.90;;;;;;5021127;28;20045;-82
2023/11/20 00:13:45;;;;;;;14.73;3.08;;;9.00;99.90;;;;;;4999729;28;20042;-80
2023/11/20 00:16:34;;;;;;;15.90;2.97;;;9.10;99.90;;;;;;4990433;28;20061;-83
2023/11/20 00:19:22;;;;;;;15.50;3.50;;;9.10;99.90;;;;;;4989530;28;20390;-81
2023/11/20 00:22:10;;;;;;;17.23;3.10;;;9.10;99.90;;;;;;4985151;28;20143;-81
2023/11/20 00:24:57;;;;;;;15.45;3.60;;;9.10;99.90;;;;;;4994008;28;20407;-82
2023/11/20 00:27:45;;;;;;;21.45;4.13;;;9.00;99.90;;;;;;4992702;28;20046;-82
2023/11/20 00:30:32;;;;;;;17.25;3.53;;;9.00;99.90;;;;;;4996580;28;20057;-79
2023/11/20 00:33:19;;;;;;;18.85;3.80;;;8.90;99.90;;;;;;4984516;28;20435;-82
2023/11/20 00:36:12;;;;;;;18.75;3.33;;;8.90;99.90;;;;;;4990260;28;20074;-82
2023/11/20 00:39:01;;;;;;;16.35;3.10;;;8.90;99.90;;;;;;4996850;28;20354;-82
2023/11/20 00:41:48;;;;;;;12.20;2.83;;;8.90;99.90;;;;;;4992934;28;20046;-82
2023/11/20 00:44:36;;;;;;;15.82;3.08;;;8.90;99.90;;;;;;4993546;28;20476;-80
2023/11/20 00:47:24;;;;;;;21.88;3.85;;;9.00;99.90;;;;;;4984018;28;20378;-83
2023/11/20 00:50:11;;;;;;;15.25;3.15;;;9.00;99.90;;;;;;4985007;28;20141;-83
2023/11/20 00:52:59;;;;;;;14.52;3.40;;;8.90;99.90;;;;;;4992170;28;20051;-82
2023/11/20 00:55:48;;;;;;;18.08;3.08;;;8.80;99.90;;;;;;4994136;28;20048;-82
2023/11/20 00:58:36;;;;;;;10.65;2.40;;;8.80;99.90;;;;;;4982529;28;20058;-82
2023/11/20 01:01:23;;;;;;;10.10;2.53;;;8.80;99.90;;;;;;4989757;28;20042;-80
2023/11/20 01:04:10;;;;;;;12.98;2.80;;;8.80;99.90;;;;;;4979086;28;20126;-81
2023/11/20 01:06:58;;;;;;;15.30;2.85;;;8.80;99.90;;;;;;4992332;28;20065;-83
2023/11/20 01:09:47;;;;;;;13.00;3.05;;;8.80;99.90;;;;;;4999460;28;20123;-80
2023/11/20 01:12:37;;;;;;;13.43;3.80;;;8.80;99.90;;;;;;4998187;28;20038;-82
2023/11/20 01:15:28;;;;;;;13.80;3.00;;;8.70;99.90;;;;;;4992238;28;20096;-82
2023/11/20 01:18:16;;;;;;;17.48;3.40;;;8.70;99.90;;;;;;4996417;28;20065;-82
2023/11/20 01:21:08;;;;;;;17.80;2.90;;;8.60;99.90;;;;;;4995745;28;20117;-82
2023/11/20 01:23:56;;;;;;;15.88;3.50;;;8.60;99.90;;;;;;4983918;28;20065;-82
2023/11/20 01:26:43;;;;;;;7.70;2.67;;;8.60;99.90;;;;;;4984737;28;20057;-82
2023/11/20 01:29:31;;;;;;;12.63;2.30;;;8.60;99.90;;;;;;4991216;28;20053;-82
2023/11/20 01:32:18;;;;;;;15.70;3.00;;;8.60;99.90;;;;;;4992522;28;20409;-81
2023/11/20 01:35:05;;;;;;;13.13;3.25;;;8.70;99.90;;;;;;4980817;28;20454;-82
2023/11/20 01:37:57;;;;;;;10.30;2.35;;;8.70;99.90;;;;;;4974770;28;20491;-81
2023/11/20 01:40:54;;;;;;;17.88;2.70;;;8.80;99.90;;;;;;4990253;28;20069;-81
2023/11/20 01:43:41;;;;;;;12.95;2.50;;;8.80;99.90;;;;;;5001070;28;20046;-80
2023/11/20 01:46:30;;;;;;;12.65;2.40;;;8.80;99.90;;;;;;4993838;28;20045;-81
2023/11/20 01:49:17;;;;;;;14.05;2.97;;;8.90;99.90;;;;;;4977507;28;20117;-80
2023/11/20 01:52:05;;;;;;;18.90;3.58;;;9.00;99.90;;;;;;4996511;28;20180;-80
2023/11/20 01:54:53;;;;;;;9.20;2.47;;;8.90;99.90;;;;;;4995408;28;20057;-80
2023/11/20 01:57:44;;;;;;;16.02;3.03;;;9.00;99.90;;;;;;5001064;28;20390;-82
2023/11/20 02:00:33;;;;;;;16.25;2.65;;;9.00;99.90;;;;;;5003265;28;20343;-83
2023/11/20 02:03:20;;;;;;;15.50;2.50;;;8.90;99.90;;;;;;4998620;28;20061;-80
2023/11/20 02:06:08;;;;;;;11.40;2.90;;;8.80;99.90;;;;;;4991653;28;20050;-80
2023/11/20 02:08:56;;;;;;;16.30;3.03;;;8.70;99.90;;;;;;4990023;28;20054;-82
2023/11/20 02:11:47;;;;;;;11.95;2.45;;;8.80;99.90;;;;;;4989059;28;20052;-82
2023/11/20 02:14:34;;;;;;;16.35;2.83;;;8.80;99.90;;;;;;4984063;28;20710;-82
2023/11/20 02:17:22;;;;;;;19.85;3.03;;;8.70;99.90;;;;;;4991104;28;20108;-81
2023/11/20 02:20:10;;;;;;;20.20;3.13;;;8.60;99.90;;;;;;4982147;28;20125;-83
2023/11/20 02:22:57;;;;;;;14.82;2.65;;;8.70;99.90;;;;;;4990293;28;20057;-82
2023/11/20 02:25:46;;;;;;;16.23;3.10;;;8.70;99.90;;;;;;4988476;28;20054;-83
2023/11/20 02:28:42;;;;;;;12.85;2.38;;;8.70;99.90;;;;;;5001129;28;20041;-82
2023/11/20 02:31:33;;;;;;;12.77;2.90;;;8.70;99.90;;;;;;4989237;28;20046;-81
2023/11/20 02:34:20;;;;;;;20.42;2.92;;;8.70;99.90;;;;;;5000770;28;20098;-83
2023/11/20 02:37:08;;;;;;;17.92;2.58;;;8.80;99.90;;;;;;5000793;28;20061;-83
2023/11/20 02:39:56;;;;;;;12.68;3.03;;;8.90;99.90;;;;;;4997640;28;20049;-80
2023/11/20 02:42:43;;;;;;;15.30;3.03;;;9.00;99.90;;;;;;4999577;28;20117;-77
2023/11/20 02:45:30;;;;;;;14.98;2.38;;;9.00;99.90;;;;;;4988757;28;20073;-80
2023/11/20 02:48:18;;;;;;;17.25;2.80;;;9.00;99.90;;;;;;4991097;28;20325;-82
2023/11/20 02:51:05;;;;;;;14.85;2.50;;;9.10;99.90;;;;;;4992127;28;20339;-82
2023/11/20 02:53:53;;;;;;;16.88;2.92;;;9.00;99.90;;;;;;4997663;28;20138;-83
2023/11/20 02:56:40;;;;;;;9.80;2.80;;;8.90;99.90;;;;;;4988111;28;20115;-82
2023/11/20 02:59:28;;;;;;;11.40;2.80;;;8.90;99.90;;;;;;4974427;28;20445;-83
2023/11/20 03:02:15;;;;;;;10.82;3.60;;;9.00;99.90;;;;;;4988837;28;20038;-79
2023/11/20 03:05:03;;;;;;;20.88;3.63;;;9.10;99.90;;;;;;4976176;28;20074;-82
2023/11/20 03:07:51;;;;;;;14.10;2.67;;;9.10;99.90;;;;;;4991870;28;20054;-83
2023/11/20 03:10:43;;;;;;;12.63;2.28;;;9.30;99.90;;;;;;4988807;28;20042;-82
2023/11/20 03:13:30;;;;;;;;;;;9.30;99.90;;;;;;4994252;28;20042;-82
2023/11/20 03:16:21;;;;;;;24.67;3.33;;;9.30;99.90;;;;;;4994050;28;19929;-82
2023/11/20 03:19:08;;;;;;;12.00;2.65;;;9.30;99.90;;;;;;4994548;28;20042;-82
2023/11/20 03:21:58;;;;;;;15.45;2.45;;;9.20;99.90;;;;;;5001392;28;20354;-80
2023/11/20 03:24:48;;;;;;;18.17;3.35;;;9.20;99.90;;;;;;4994233;28;20046;-82
2023/11/20 03:27:35;;;;;;;16.17;3.33;;;9.20;99.90;;;;;;4999499;28;20043;-82
2023/11/20 03:30:22;;;;;;;10.00;2.17;;;9.10;99.90;;;;;;4994485;28;20046;-79
2023/11/20 03:33:10;;;;;;;20.77;3.15;;;9.10;99.90;;;;;;4998996;28;20053;-82
2023/11/20 03:35:57;;;;;;;14.48;2.92;;;9.00;99.90;;;;;;4995302;28;20057;-82
2023/11/20 03:38:44;;;;;;;14.35;3.50;;;8.90;99.90;;;;;;4993352;28;20364;-83
2023/11/20 03:41:34;;;;;;;16.27;3.22;;;8.80;99.90;;;;;;5000633;28;20053;-83
2023/11/20 03:44:21;;;;;;;12.35;2.50;;;8.70;99.90;;;;;;5001263;28;20057;-82
2023/11/20 03:47:09;;;;;;;9.90;3.25;;;8.70;99.90;;;;;;4999772;28;20188;-82
2023/11/20 03:49:56;;;;;;;15.38;3.42;;;8.60;99.90;;;;;;4990257;28;20667;-82
2023/11/20 03:52:44;;;;;;;15.27;2.63;;;8.70;99.90;;;;;;4993347;28;20047;-83
2023/11/20 03:55:31;;;;;;;11.32;3.22;;;8.60;99.90;;;;;;4994600;28;20374;-82
2023/11/20 03:58:18;;;;;;;16.42;3.35;;;8.60;99.90;;;;;;4991765;28;20097;-82
2023/11/20 04:01:06;;;;;;;14.27;2.50;;;8.60;99.90;;;;;;4998110;28;20051;-82
2023/11/20 04:03:55;;;;;;;14.93;2.75;;;8.70;99.90;;;;;;4993509;28;20046;-80
2023/11/20 04:06:42;;;;;;;14.95;2.70;;;8.70;99.90;;;;;;4994880;28;20050;-80
2023/11/20 04:09:32;;;;;;;21.10;2.72;;;8.80;99.90;;;;;;5003134;28;20128;-81
2023/11/20 04:12:19;;;;;;;12.38;2.20;;;8.90;99.90;;;;;;5012202;28;20046;-81
2023/11/20 04:15:10;;;;;;;10.95;2.47;;;9.10;99.90;;;;;;5004513;28;20053;-82
2023/11/20 04:17:57;;;;;;;12.45;3.13;;;9.20;99.90;;;;;;4992480;28;20057;-79
2023/11/20 04:20:44;;;;;;;18.70;4.30;;;9.20;99.90;;;;;;4993922;28;20486;-81
2023/11/20 04:23:33;;;;;;;11.85;2.65;;;9.10;99.90;;;;;;4991898;28;20443;-80
2023/11/20 04:26:20;;;;;;;15.25;3.15;;;9.10;99.90;;;;;;5003884;28;20042;-81
2023/11/20 04:29:10;;;;;;;18.73;3.22;;;9.10;99.90;;;;;;4993894;28;20042;-81
2023/11/20 04:31:57;;;;;;;15.23;3.30;;;9.30;99.90;;;;;;4974975;28;20058;-82
2023/11/20 04:34:44;;;;;;;11.70;3.15;;;9.20;99.90;;;;;;4985495;28;20050;-81
2023/11/20 04:37:31;;;;;;;11.68;2.78;;;9.20;99.90;;;;;;4992387;28;20061;-82
2023/11/20 04:40:19;;;;;;;21.00;3.20;;;9.20;99.90;;;;;;4999844;28;20058;-81
2023/11/20 04:43:06;;;;;;;13.27;2.60;;;9.30;99.90;;;;;;4984846;28;20133;-81
2023/11/20 04:45:56;;;;;;;12.20;2.80;;;9.40;99.90;;;;;;4993141;28;20128;-80
2023/11/20 04:48:43;;;;;;;18.30;3.70;;;9.50;99.90;;;;;;4992975;28;20124;-81
2023/11/20 04:51:31;;;;;;;16.23;3.03;;;9.50;99.90;;;;;;4993454;28;20038;-80
2023/11/20 04:54:18;;;;;;;16.05;3.22;;;9.50;99.90;;;;;;4991688;28;20427;-80
2023/11/20 04:57:05;;;;;;;15.25;2.72;;;9.60;99.90;;;;;;4991690;28;20465;-83
2023/11/20 04:59:57;;;;;;;13.57;2.78;;;9.60;99.90;;;;;;5004329;28;20455;-83
2023/11/20 05:02:47;;;;;;;13.00;3.13;;;9.60;99.90;;;;;;4992249;28;20382;-81
2023/11/20 05:05:34;;;;;;;19.40;3.25;;;9.50;99.90;;;;;;4992106;28;20137;-76
2023/11/20 05:08:21;;;;;;;21.50;3.70;;;9.60;99.90;;;;;;4989085;28;20042;-80
2023/11/20 05:11:09;;;;;;;10.48;2.65;;;9.50;99.90;;;;;;4995046;28;20074;-80
2023/11/20 05:13:58;;;;;;;11.85;2.65;;;9.60;99.90;;;;;;4997796;28;20042;-81
2023/11/20 05:16:46;;;;;;;14.38;2.95;;;9.60;99.90;;;;;;4995421;28;20057;-80
2023/11/20 05:19:33;;;;;;;15.48;2.50;;;9.70;99.90;;;;;;4994607;28;20042;-82
2023/11/20 05:22:21;;;;;;;16.90;3.03;;;9.70;99.90;;;;;;4994254;28;20042;-81
2023/11/20 05:25:09;;;;;;;12.25;2.90;;;9.60;99.90;;;;;;4989345;28;20042;-81
2023/11/20 05:27:56;;;;;;;12.63;2.50;;;9.60;99.90;;;;;;4993701;28;20184;-81
2023/11/20 05:30:43;;;;;;;14.75;2.60;;;9.70;99.90;;;;;;4997089;28;20058;-80
2023/11/20 05:33:33;;;;;;;15.80;2.78;;;9.70;99.90;;;;;;4998574;28;20046;-78
2023/11/20 05:36:20;;;;;;;9.48;2.83;;;9.60;99.90;;;;;;4995551;28;20054;-80
2023/11/20 05:39:09;;;;;;;16.30;2.85;;;9.60;99.90;;;;;;4992440;28;20046;-80
2023/11/20 05:41:59;;;;;;;15.60;2.60;;;9.50;99.90;;;;;;4991374;28;20077;-81
2023/11/20 05:44:48;;;;;;;13.13;2.73;;;9.50;99.90;;;;;;4997310;28;20070;-79
2023/11/20 05:47:36;;;;;;;13.07;2.78;;;9.50;99.90;;;;;;4991573;28;20292;-80
2023/11/20 05:50:23;;;;;;;12.88;2.42;;;9.60;99.90;;;;;;5005401;28;20406;-81
2023/11/20 05:53:15;;;;;;;16.42;3.28;;;9.50;99.90;;;;;;4989388;28;20124;-80
2023/11/20 05:56:02;;;;;;;14.88;3.17;;;9.60;99.90;;;;;;4999154;28;20061;-80
2023/11/20 06:04:14;;;;;;;17.05;2.97;;;9.60;99.90;;;;;;5259822;23;19925;-79
2023/11/20 06:07:04;;;;;;;15.57;2.85;;;9.60;99.90;;;;;;5026996;28;20135;-78
2023/11/20 06:09:51;;;;;;;20.60;3.03;;;9.60;99.90;;;;;;4984671;28;20162;-77
2023/11/20 06:12:39;;;;;;;13.70;2.42;;;9.60;99.90;;;;;;4996942;28;20034;-78
2023/11/20 06:15:26;;;;;;;13.02;3.55;;;9.50;99.90;;;;;;5029004;28;20484;-79
2023/11/20 06:18:14;;;;;;;12.38;2.50;;;9.50;99.90;;;;;;5028181;28;20080;-79
2023/11/20 06:21:03;;;;;;;10.50;2.50;;;9.50;99.90;;;;;;5004826;28;20060;-81
2023/11/20 06:23:50;;;;;;;12.20;2.90;;;9.50;99.90;;;;;;5021570;28;20041;-81
2023/11/20 06:26:39;;;;;;;12.07;2.55;;;9.50;99.90;;;;;;4999291;28;20084;-79
2023/11/20 06:29:26;;;;;;;12.95;2.40;;;9.50;99.90;;;;;;5026782;28;20447;-79
2023/11/20 06:32:14;;;;;;;20.23;2.67;;;9.50;99.90;;;;;;5012516;28;20041;-80
2023/11/20 06:35:02;;;;;;;14.20;2.50;;;9.50;99.90;;;;;;5010454;28;20057;-80
2023/11/20 06:37:50;;;;;;;10.73;2.30;;;9.50;99.90;;;;;;5012030;28;20053;-80
2023/11/20 06:40:41;;;;;;;11.82;2.75;;;9.50;99.90;;;;;;5027979;28;20051;-80
2023/11/20 06:43:30;;;;;;;13.80;2.80;;;9.50;99.90;;;;;;5029317;28;20046;-80
2023/11/20 06:46:18;;;;;;;17.45;2.95;;;9.50;99.90;;;;;;5028493;28;20504;-81
2023/11/20 06:49:05;;;;;;;14.45;2.83;;;9.50;99.90;;;;;;5023267;28;20135;-81
2023/11/20 06:51:53;;;;;;;14.07;2.45;;;9.50;99.90;;;;;;5030559;28;20042;-82
2023/11/20 06:54:40;;;;;;;15.02;2.63;;;9.50;99.90;;;;;;5028295;28;20044;-82
2023/11/20 06:57:30;;;;;;;14.05;3.08;;;9.50;99.90;;;;;;5012220;28;20761;-80
2023/11/20 07:00:18;;;;;;;15.88;3.10;;;9.50;99.90;;;;;;5032350;28;20138;-81
2023/11/20 07:03:06;;;;;;;10.40;2.63;;;9.60;99.90;;;;;;5026855;28;20053;-82
2023/11/20 07:05:53;;;;;;;12.02;2.63;;;9.60;99.90;;;;;;5031488;28;20473;-83
2023/11/20 07:08:41;;;;;;;14.10;2.55;;;9.60;99.90;;;;;;5026119;28;20049;-84
2023/11/20 07:11:31;;;;;;;20.30;3.20;;;9.60;99.90;;;;;;5008198;28;20099;-84
2023/11/20 07:14:18;;;;;;;19.00;2.90;;;9.60;99.90;;;;;;5022987;28;20034;-82
2023/11/20 07:17:08;;;;;;;9.73;2.20;;;9.60;99.90;;;;;;5009038;28;20050;-79
2023/11/20 07:19:57;;;;;;;19.35;3.20;;;9.60;99.90;;;;;;5012806;28;20073;-82
2023/11/20 07:22:45;;;;;;;18.27;2.95;;;9.50;99.90;;;;;;5009226;28;20053;-81
2023/11/20 07:25:35;;;;;;;16.15;2.58;;;9.50;99.90;;;;;;5022331;28;20073;-81
2023/11/20 07:28:22;;;;;;;15.95;3.00;;;9.50;99.90;;;;;;5015288;28;20477;-79
2023/11/20 07:31:10;;;;;;;15.07;2.70;;;9.50;99.90;;;;;;5010544;28;20120;-82
2023/11/20 07:33:57;;;;;;;16.13;3.17;;;9.50;99.90;;;;;;5012940;28;20441;-82
2023/11/20 07:36:45;;;;;;;14.60;2.72;;;9.50;99.90;;;;;;5014139;28;20046;-82
2023/11/20 07:39:32;;;;;;;11.75;2.75;;;9.50;99.90;;;;;;5013838;28;20497;-81
2023/11/20 07:42:20;;;;;;;16.13;2.63;;;9.50;99.90;;;;;;5019364;28;20053;-82
2023/11/20 07:45:09;;;;;;;13.45;2.78;;;9.50;99.90;;;;;;5015677;28;20358;-82
2023/11/20 07:47:59;;;;;;;12.40;2.50;;;9.50;99.90;;;;;;5021568;28;20057;-80
2023/11/20 07:50:48;;;;;;;11.10;2.63;;;9.40;99.90;;;;;;5018635;28;20069;-81
2023/11/20 07:53:36;;;;;;;13.85;3.38;;;9.50;99.90;;;;;;5014881;28;20057;-82
2023/11/20 07:56:24;;;;;;;12.07;2.92;;;9.50;99.90;;;;;;5021532;28;20149;-82
2023/11/20 07:59:11;;;;;;;14.73;2.70;;;9.50;99.90;;;;;;5014748;28;20065;-81
2023/11/20 08:02:04;;;;;;;13.50;2.53;;;9.60;99.90;;;;;;5015656;28;20120;-82
2023/11/20 08:04:51;;;;;;;16.88;2.97;;;9.60;99.90;;;;;;5010536;28;20160;-82
2023/11/20 08:07:42;;;;;;;13.02;3.30;;;9.60;99.90;;;;;;5001823;28;20065;-82
2023/11/20 08:10:29;;;;;;;13.88;3.10;;;9.60;99.90;;;;;;5024042;28;20041;-82
2023/11/20 08:13:17;;;;;;;15.98;3.08;;;9.60;99.90;;;;;;5017887;28;20418;-81
2023/11/20 08:16:04;;;;;;;20.15;3.70;;;9.50;99.90;;;;;;5027239;28;20041;-79
2023/11/20 08:19:00;;;;;;;11.32;2.40;;;9.50;99.90;;;;;;5031754;28;20063;-82
2023/11/20 08:21:51;;;;;;;14.93;2.45;;;9.50;99.90;;;;;;5031476;28;20076;-80
2023/11/20 08:24:43;;;;;;;23.88;7.35;;;9.60;99.90;;;;;;5031212;28;20052;-81
2023/11/20 08:27:30;;;;;;;12.95;2.95;;;9.60;99.90;;;;;;5016371;28;20038;-80
2023/11/20 08:30:18;;;;;;;13.60;2.20;;;9.60;99.90;;;;;;5029370;28;20359;-81
2023/11/20 08:33:07;;;;;;;17.95;2.70;;;9.60;99.90;;;;;;5015237;28;20238;-81
2023/11/20 08:35:57;;;;;;;15.73;2.80;;;9.60;99.90;;;;;;5019552;28;20046;-79
2023/11/20 08:38:46;;;;;;;16.88;3.13;;;9.60;99.90;;;;;;5008193;28;20038;-81
2023/11/20 08:41:34;;;;;;;11.52;2.47;;;9.60;99.90;;;;;;5027930;28;20045;-81
2023/11/20 08:44:23;;;;;;;18.10;3.35;;;9.60;99.90;;;;;;5022417;28;20185;-81
2023/11/20 08:47:13;;;;;;;13.65;3.17;;;9.60;99.90;;;;;;5031541;28;20041;-81
2023/11/20 08:50:05;;;;;;;13.57;2.30;;;9.60;99.90;;;;;;5030207;28;20120;-82
2023/11/20 08:52:53;;;;;;;15.77;3.50;;;9.60;99.90;;;;;;5028176;28;20057;-82
2023/11/20 08:55:41;;;;;;;14.95;2.90;;;9.60;99.90;;;;;;5025206;28;20064;-81
2023/11/20 08:58:28;;;;;;;17.90;3.85;;;9.60;99.90;;;;;;5014964;28;20045;-81
2023/11/20 09:01:16;;;;;;;16.20;3.65;;;9.60;99.90;;;;;;5028503;28;20209;-81
2023/11/20 09:04:05;;;;;;;16.20;2.67;;;9.70;99.90;;;;;;5030650;28;20042;-82
2023/11/20 09:06:52;;;;;;;16.20;2.67;;;9.80;99.90;;;;;;5032089;28;20052;-81
2023/11/20 09:09:41;;;;;;;12.40;2.78;;;9.80;99.90;;;;;;5026711;28;20038;-78
2023/11/20 09:12:29;;;;;;;11.10;2.35;;;9.70;99.90;;;;;;5030505;28;20472;-81
2023/11/20 09:15:19;;;;;;;18.92;4.68;;;9.80;99.90;;;;;;5009906;28;20120;-81
2023/11/20 09:18:09;;;;;;;14.18;3.65;;;9.80;99.90;;;;;;5010926;28;20061;-80
2023/11/20 09:21:01;;;;;;;17.38;3.35;;;9.90;99.90;;;;;;5029845;28;20042;-80
2023/11/20 09:23:52;;;;;;;15.73;2.92;;;9.90;99.90;;;;;;5028867;28;20060;-81
2023/11/20 09:26:43;;;;;;;17.40;2.92;;;10.00;99.90;;;;;;5031242;28;20037;-82
2023/11/20 09:29:32;;;;;;;21.45;3.15;;;10.00;99.90;;;;;;5021340;28;20037;-81
2023/11/20 09:32:20;;;;;;;17.30;3.10;;;10.20;99.90;;;;;;5029131;28;20350;-82
2023/11/20 09:35:11;;;;;;;11.55;2.90;;;10.20;99.90;;;;;;5029356;28;20100;-82
2023/11/20 09:38:03;;;;;;;10.27;3.40;;;10.20;99.90;;;;;;5028558;28;20060;-82
2023/11/20 09:40:55;;;;;;;19.77;2.67;;;10.20;99.90;;;;;;5026143;28;20053;-82
2023/11/20 09:43:46;;;;;;;17.80;3.50;;;10.20;99.90;;;;;;5027112;28;20042;-82
2023/11/20 09:46:40;;;;;;;10.35;2.03;;;10.40;99.90;;;;;;5026883;28;20187;-81
2023/11/20 09:49:30;;;;;;;11.73;2.90;;;11.20;99.90;;;;;;5009311;28;20048;-82
2023/11/20 09:52:18;;;;;;;11.27;2.67;;;11.20;99.90;;;;;;5029017;28;20527;-81
2023/11/20 09:55:08;;;;;;;14.25;2.70;;;11.30;99.90;;;;;;5032467;28;20114;-77
2023/11/20 09:57:56;;;;;;;10.32;2.38;;;11.70;99.90;;;;;;5030548;28;20064;-82
2023/11/20 10:00:45;;;;;;;14.43;2.70;;;11.70;99.90;;;;;;5015512;28;20475;-83
2023/11/20 10:03:39;;;;;;;11.18;3.08;;;11.50;99.90;;;;;;5012081;28;20092;-80
2023/11/20 10:06:30;;;;;;;8.75;2.70;;;12.00;99.90;;;;;;5030287;28;20477;-78
2023/11/20 10:09:24;;;;;;;9.02;2.72;;;12.70;99.90;;;;;;5018900;28;20048;-82
2023/11/20 10:12:13;;;;;;;;;;;13.10;99.90;;;;;;5029785;28;20049;-82
2023/11/20 10:15:01;;;;;;;14.50;2.85;;;13.40;99.90;;;;;;5024801;28;20015;-83
2023/11/20 10:17:56;;;;;;;13.85;3.08;;;13.10;99.90;;;;;;5025386;28;20045;-82
2023/11/20 10:20:52;;;;;;;14.45;2.80;;;12.70;99.90;;;;;;5003875;28;20073;-83
2023/11/20 10:23:41;;;;;;;11.75;2.58;;;13.20;99.90;;;;;;5022735;28;20434;-82
2023/11/20 10:26:31;;;;;;;15.50;2.63;;;13.30;99.90;;;;;;5035832;28;20060;-82
2023/11/20 10:29:23;;;;;;;9.60;2.40;;;13.40;99.90;;;;;;5028099;28;20061;-82
2023/11/20 10:32:11;;;;;;;15.50;2.72;;;12.90;99.90;;;;;;5026957;28;20049;-83
2023/11/20 10:35:18;;;;;;;7.72;2.28;;;12.80;99.90;;;;;;5028277;28;20295;-82
2023/11/20 10:38:07;;;;;;;10.82;2.05;;;12.30;99.90;;;;;;5029849;28;20214;-82
2023/11/20 10:40:58;;;;;;;17.50;3.15;;;11.50;99.90;;;;;;5025469;28;20193;-83
2023/11/20 10:43:45;;;;;;;9.05;2.40;;;11.60;99.90;;;;;;5026472;28;20190;-83
2023/11/20 10:46:35;;;;;;;13.00;2.35;;;12.10;99.90;;;;;;5029262;28;20033;-82
2023/11/20 10:49:25;;;;;;;13.68;2.58;;;12.00;99.90;;;;;;5029046;28;20069;-82
2023/11/20 10:52:25;;;;;;;9.45;2.45;;;11.80;99.90;;;;;;5013975;28;20042;-81
2023/11/20 10:55:14;;;;;;;9.57;2.30;;;11.30;99.90;;;;;;5030381;28;20044;-82
2023/11/20 10:58:05;;;;;;;8.75;1.98;;;11.00;99.90;;;;;;5033046;28;20052;-80
2023/11/20 11:00:54;;;;;;;10.43;2.28;;;10.60;99.90;;;;;;5025530;28;20049;-82
2023/11/20 11:03:41;;;;;;;8.38;1.77;;;10.20;99.90;;;;;;5017722;28;20041;-83
2023/11/20 11:06:33;;;;;;;6.65;2.05;;;10.10;99.90;;;;;;5026754;28;20370;-79
2023/11/20 11:09:22;;;;;;;6.10;1.30;;;9.90;99.90;;;;;;5031876;28;20048;-80
2023/11/20 11:12:11;;;;;;;6.70;1.65;;;9.80;99.90;;;;;;5026283;28;20468;-83
2023/11/20 11:15:04;;;;;;;8.45;1.75;;;9.90;99.90;;;;;;5028605;28;20196;-81
2023/11/20 11:18:03;;;;;;;;;;;10.00;1.00;;;;;;5024493;28;20069;-82
2023/11/20 11:20:55;;;;;;;5.78;1.55;;;9.70;1.00;;;;;;5024968;28;19921;-82
2023/11/20 11:23:46;;;;;;;7.70;1.77;;;9.70;99.90;;;;;;5027414;28;20045;-82
2023/11/20 11:27:00;;;;;;;8.70;2.03;;;9.70;99.90;;;;;;5020336;28;20367;-80
2023/11/20 11:29:56;;;;;;;6.45;1.60;;;9.60;99.90;;;;;;5026481;28;20160;-83
2023/11/20 11:33:05;;;;;;;6.32;2.13;;;10.60;99.90;;;;;;5025921;28;20182;-82
2023/11/20 11:36:16;;;;;;;13.40;2.40;;;11.40;1.00;;;;;;5031808;28;20167;-82
2023/11/20 11:39:13;;;;;;;6.13;1.35;;;12.70;99.90;;;;;;5034419;28;20049;-82
2023/11/20 11:42:11;;;;;;;7.72;1.67;;;13.50;99.90;;;;;;5035548;28;20037;-83
2023/11/20 11:45:21;;;;;;;9.40;1.77;;;14.80;99.90;;;;;;5032597;28;20060;-84
2023/11/20 11:48:10;;;;;;;8.63;1.65;;;15.30;1.00;;;;;;5033407;28;20057;-82
2023/11/20 11:51:07;;;;;;;10.52;2.50;;;16.10;1.00;;;;;;5028895;28;20041;-81
2023/11/20 11:54:16;;;;;;;7.32;1.60;;;15.90;99.90;;;;;;5021679;28;20045;-83
2023/11/20 11:57:26;;;;;;;4.82;1.35;;;16.70;99.90;;;;;;5025266;28;20462;-82
2023/11/20 12:00:22;;;;;;;3.50;1.15;;;17.30;99.90;;;;;;5015326;28;20105;-84
2023/11/20 12:03:11;;;;;;;3.15;1.13;;;16.20;99.90;;;;;;5030654;28;20103;-81
2023/11/20 12:06:00;;;;;;;5.13;1.45;;;16.20;99.90;;;;;;5022559;28;20129;-82
2023/11/20 12:08:54;;;;;;;5.15;1.20;;;16.50;99.90;;;;;;5033142;28;20068;-81
2023/11/20 12:12:01;;;;;;;4.43;1.10;;;14.70;99.90;;;;;;5032952;28;20037;-82
2023/11/20 12:14:49;;;;;;;3.88;1.30;;;13.90;99.90;;;;;;5016033;28;20184;-84
2023/11/20 12:17:37;;;;;;;5.68;1.52;;;14.20;99.90;;;;;;5031775;28;20056;-81
2023/11/20 12:20:30;;;;;;;6.05;1.35;;;14.90;99.90;;;;;;5020675;28;20454;-84
2023/11/20 12:23:33;;;;;;;5.40;1.73;;;15.20;99.90;;;;;;5028445;28;20049;-81
2023/11/20 12:26:24;;;;;;;;;;;15.00;99.90;;;;;;5036702;28;20064;-84
2023/11/20 12:29:13;;;;;;;5.60;1.45;;;13.60;99.90;;;;;;5015551;28;19921;-83
2023/11/20 12:32:03;;;;;;;6.95;2.08;;;12.60;99.90;;;;;;5034894;28;20061;-82
2023/11/20 12:34:57;;;;;;;7.63;1.67;;;12.20;99.90;;;;;;5021799;28;20085;-83
2023/11/20 12:37:45;;;;;;;10.35;1.67;;;13.20;99.90;;;;;;5033720;28;20056;-83
2023/11/20 12:40:33;;;;;;;4.18;1.52;;;14.00;99.90;;;;;;5033302;28;20033;-80
2023/11/20 12:43:24;;;;;;;4.70;1.25;;;15.00;99.90;;;;;;5036827;28;20296;-81
2023/11/20 12:46:17;;;;;;;6.95;1.63;;;15.80;99.90;;;;;;5041736;28;20111;-82
2023/11/20 12:49:09;;;;;;;7.75;2.53;;;15.40;99.90;;;;;;5044312;28;20045;-82
2023/11/20 12:52:02;;;;;;;8.32;1.60;;;14.10;99.90;;;;;;5050472;28;20041;-82
2023/11/20 12:54:50;;;;;;;5.13;1.40;;;12.90;99.90;;;;;;5050609;28;20030;-82
2023/11/20 12:57:39;;;;;;;6.78;1.98;;;12.60;99.90;;;;;;5033036;28;20069;-80
2023/11/20 13:00:31;;;;;;;8.90;2.20;;;11.80;99.90;;;;;;5037960;28;20111;-82
2023/11/20 13:03:19;;;;;;;6.47;2.92;;;11.30;99.90;;;;;;5044404;28;20705;-82
2023/11/20 13:06:09;;;;;;;8.57;2.05;;;10.80;99.90;;;;;;5042374;28;20065;-82
2023/11/20 13:08:59;;;;;;;5.87;1.80;;;10.50;1.00;;;;;;5031388;28;20042;-83
2023/11/20 13:11:48;;;;;;;5.57;1.25;;;10.30;1.00;;;;;;5032673;28;20041;-82
2023/11/20 13:14:35;;;;;;;7.55;1.60;;;10.40;48.60;;;;;;5031184;28;20067;-81
2023/11/20 13:17:22;;;;;;;6.78;1.48;;;11.10;1.00;;;;;;5035380;28;20135;-81
2023/11/20 13:20:48;;;;;;;7.32;1.80;;;11.90;1.00;;;;;;5015518;28;20045;-83
2023/11/20 13:23:36;;;;;;;5.00;1.20;;;12.90;1.00;;;;;;5017637;28;20068;-84
2023/11/20 13:26:23;;;;;;;7.30;1.50;;;12.90;99.90;;;;;;5033325;28;20046;-82
2023/11/20 13:29:11;;;;;;;7.45;1.52;;;12.50;99.90;;;;;;5018709;28;20151;-81
2023/11/20 13:32:01;;;;;;;7.10;1.95;;;13.50;99.90;;;;;;5026486;28;20572;-83
2023/11/20 13:34:50;;;;;;;4.40;1.35;;;13.70;99.90;;;;;;5027889;28;20053;-85
2023/11/20 13:37:43;;;;;;;9.15;1.23;;;14.20;99.90;;;;;;5030506;28;20053;-83
2023/11/20 13:40:31;;;;;;;5.47;1.55;;;15.00;99.90;;;;;;5021076;28;20049;-83
2023/11/20 13:43:29;;;;;;;4.35;1.42;;;14.30;99.90;;;;;;5030791;28;20172;-82
2023/11/20 13:46:19;;;;;;;7.70;1.80;;;13.40;99.90;;;;;;5027035;28;20037;-82
2023/11/20 13:49:08;;;;;;;6.35;1.48;;;12.80;99.90;;;;;;5031635;28;20052;-80
2023/11/20 13:51:55;;;;;;;5.85;2.70;;;12.40;99.90;;;;;;5025712;28;20068;-84
2023/11/20 13:54:51;;;;;;;6.05;1.73;;;12.00;99.90;;;;;;5024765;28;20700;-82
2023/11/20 13:57:38;;;;;;;2.78;1.17;;;11.70;99.90;;;;;;5031541;28;20117;-79
2023/11/20 14:00:26;;;;;;;5.80;1.48;;;11.10;99.90;;;;;;5027889;28;20511;-85
2023/11/20 14:03:20;;;;;;;9.65;1.90;;;10.90;99.90;;;;;;5013562;28;20045;-82
2023/11/20 14:06:12;;;;;;;5.85;1.48;;;10.70;1.00;;;;;;5027207;28;20061;-84
2023/11/20 14:08:59;;;;;;;8.65;1.63;;;10.40;1.00;;;;;;5028871;28;20052;-82
2023/11/20 14:11:47;;;;;;;8.57;3.17;;;10.10;1.00;;;;;;5030171;28;20948;-83
2023/11/20 14:15:31;;;;;;;3.28;1.75;;;10.10;1.00;;;;;;5012952;28;20142;-80
2023/11/20 14:18:20;;;;;;;;;;;11.30;1.00;;;;;;5024740;28;20160;-80
2023/11/20 14:21:10;;;;;;;6.28;1.77;;;11.80;1.00;;;;;;5028686;28;19940;-80
2023/11/20 14:23:58;;;;;;;3.92;1.38;;;11.20;1.00;;;;;;5011537;28;20053;-80
2023/11/20 14:26:45;;;;;;;14.57;2.22;;;10.70;1.00;;;;;;5015817;28;20071;-80
2023/11/20 14:29:35;;;;;;;5.35;1.52;;;10.30;1.00;;;;;;5028634;28;20077;-82
2023/11/20 14:32:24;;;;;;;8.65;1.95;;;10.00;1.00;;;;;;5031820;28;20049;-82
2023/11/20 14:35:16;;;;;;;5.65;1.73;;;9.80;1.00;;;;;;5013022;28;20428;-81
2023/11/20 14:38:07;;;;;;;6.03;1.67;;;10.70;1.00;;;;;;5032575;28;20053;-81
2023/11/20 14:40:56;;;;;;;2.80;1.30;;;11.60;1.00;;;;;;5026102;28;20115;-80
2023/11/20 14:43:46;;;;;;;4.10;1.70;;;12.20;1.00;;;;;;5012423;28;20046;-80
2023/11/20 14:46:34;;;;;;;7.07;1.10;;;12.00;99.90;;;;;;5029526;28;20056;-79
2023/11/20 14:49:22;;;;;;;5.03;1.40;;;11.20;99.90;;;;;;5010112;28;20480;-80
2023/11/20 14:55:41;;;;;;;7.43;1.88;;;9.80;1.00;;;;;;4939797;29;20047;-81